Nearby METAR Reports

 

EGQL - Leuchars Raf, United Kingdom
Distance from station: SW 17km
Updated: 17/09/2019 11:50
Clear
Clear
 Wind from W
Wind: W 7 km/h
Temperature: 11°C
Dew Point: 6°C
Humidity: 72%
Barometer: 1027 hPa
Summary: Clear
Visibility: greater than 10 km
2019/09/17 18:50 EGQL 171850Z 27004KT CAVOK 11/06 Q1027 BLU
EGPN - Dundee/Riverside, United Kingdom
Distance from station: WSW 20km
Updated: 17/09/2019 11:50
Few Clouds
Few Clouds
 Wind from calm
Wind: Calm
Temperature: 13°C
Dew Point: 8°C
Humidity: 72%
Barometer: 1027 hPa
Clouds: Few Clouds
Visibility: 10 km
Cloud details: Few Clouds 1219 m
2019/09/17 18:50 EGPN 171850Z 00000KT 9999 FEW040 13/08 Q1027
 
EGPH - Edinburgh Airpor, United Kingdom
Distance from station: SSW 74km
Updated: 17/09/2019 11:50
Clear
Clear
 Wind from varies
Wind: varies 4 km/h
Temperature: 11°C
Dew Point: 7°C
Humidity: 77%
Barometer: 1027 hPa
Summary: Clear
Visibility: greater than 10 km
2019/09/17 18:50 EGPH 171850Z VRB02KT CAVOK 11/07 Q1027
EGPD - Aberdeen/Dyce, United Kingdom
Distance from station: NNE 82km
Updated: 17/09/2019 11:50
Mostly cloudy
Mostly cloudy
 Wind from NW
Wind: NW 9 km/h
Temperature: 11°C
Dew Point: 6°C
Humidity: 72%
Barometer: 1027 hPa
Clouds: Mostly cloudy
Visibility: 10 km
Cloud details: Mostly cloudy 1128 m
2019/09/17 18:50 EGPD 171850Z 31005KT 9999 BKN037 11/06 Q1027 NOSIG